WEATHER/FLIGHT PLANNING

Hattiesburg Radar

 

 

 

 

Weather Links

Flight Planning Links

 

METAR

2016/09/27 17:53 KHBG 271753Z AUTO 02004KT 10SM CLR 29/21 A2997 RMK AO2 SLP144 T02890206 10294 20217 58012

TAF

2016/09/27 18:39 TAF KHBG 271736Z 2718/2818 34007KT P6SM SCT030